Time;durP1;ratioP1;P1;durP2;ratioP2;P2;SDS_P1;SDS_P2;PMS_P1;PMS_P2;Temp;Humidity;BMP_temperature;BMP_pressure;BME280_temperature;BME280_humidity;BME280_pressure;Samples;Min_cycle;Max_cycle;Signal;HPM_P1;HPM_P2
2023/10/25 00:00:38;;;;;;;9.57;2.78;;;10.00;99.90;;;;;;5013288;28;20129;-62
2023/10/25 00:03:06;;;;;;;10.15;3.08;;;10.00;99.90;;;;;;5013580;28;20414;-61
2023/10/25 00:05:33;;;;;;;9.98;3.13;;;10.00;99.90;;;;;;5013579;28;20049;-61
2023/10/25 00:08:00;;;;;;;9.38;2.65;;;10.10;99.90;;;;;;5013325;28;20046;-61
2023/10/25 00:10:27;;;;;;;9.93;3.33;;;10.10;99.90;;;;;;5013481;28;20046;-61
2023/10/25 00:12:53;;;;;;;7.03;2.75;;;10.00;99.90;;;;;;5013448;28;20046;-61
2023/10/25 00:15:21;;;;;;;13.95;2.70;;;10.00;99.90;;;;;;5013503;28;20379;-61
2023/10/25 00:17:48;;;;;;;5.07;2.55;;;10.10;99.90;;;;;;5013138;28;20049;-61
2023/10/25 00:20:15;;;;;;;9.90;2.72;;;10.10;99.90;;;;;;5013368;28;20066;-61
2023/10/25 00:22:42;;;;;;;7.20;2.45;;;10.10;99.90;;;;;;5013455;28;20045;-61
2023/10/25 00:25:09;;;;;;;8.00;2.75;;;10.10;99.90;;;;;;5013309;28;20088;-62
2023/10/25 00:27:36;;;;;;;6.53;2.30;;;10.10;99.90;;;;;;5013037;28;20054;-61
2023/10/25 00:30:03;;;;;;;7.82;3.10;;;10.20;99.90;;;;;;5011685;28;20056;-62
2023/10/25 00:32:30;;;;;;;5.50;2.40;;;10.20;99.90;;;;;;5011506;28;20418;-62
2023/10/25 00:34:57;;;;;;;4.90;2.35;;;10.20;99.90;;;;;;5013082;28;20072;-62
2023/10/25 00:37:24;;;;;;;9.57;2.95;;;10.10;99.90;;;;;;5013166;28;20042;-62
2023/10/25 00:39:51;;;;;;;8.35;3.00;;;10.10;99.90;;;;;;5013047;28;20140;-63
2023/10/25 00:42:18;;;;;;;7.55;2.47;;;10.10;99.90;;;;;;5012845;28;20454;-63
2023/10/25 00:44:45;;;;;;;9.32;2.60;;;10.20;99.90;;;;;;5011708;28;20172;-62
2023/10/25 00:47:12;;;;;;;8.18;2.58;;;10.20;99.90;;;;;;5012879;28;20061;-63
2023/10/25 00:49:38;;;;;;;6.05;2.45;;;10.20;99.90;;;;;;5014597;28;20042;-63
2023/10/25 00:52:06;;;;;;;5.13;2.30;;;10.20;99.90;;;;;;5016768;28;20067;-52
2023/10/25 00:54:33;;;;;;;7.78;2.83;;;10.20;99.90;;;;;;5016841;28;20038;-56
2023/10/25 00:57:00;;;;;;;8.68;3.08;;;10.20;99.90;;;;;;5014919;28;20037;-56
2023/10/25 00:59:26;;;;;;;7.68;2.90;;;10.30;99.90;;;;;;5014776;28;20034;-55
2023/10/25 01:01:53;;;;;;;6.20;2.80;;;10.30;99.90;;;;;;5016151;28;20113;-56
2023/10/25 01:04:20;;;;;;;5.32;2.92;;;10.20;99.90;;;;;;5016321;28;20042;-54
2023/10/25 01:06:47;;;;;;;8.75;3.60;;;10.30;99.90;;;;;;5016500;28;20050;-56
2023/10/25 01:09:14;;;;;;;8.52;3.30;;;10.20;99.90;;;;;;5015233;28;20068;-53
2023/10/25 01:11:41;;;;;;;5.70;2.95;;;10.20;99.90;;;;;;5014787;28;20054;-56
2023/10/25 01:14:08;;;;;;;10.02;3.53;;;10.20;99.90;;;;;;5014665;28;20568;-53
2023/10/25 01:16:35;;;;;;;6.47;3.00;;;10.20;99.90;;;;;;5015846;28;20046;-55
2023/10/25 01:19:02;;;;;;;6.45;3.25;;;10.20;99.90;;;;;;5016256;28;20117;-54
2023/10/25 01:21:29;;;;;;;7.43;3.15;;;10.20;99.90;;;;;;5015835;28;20454;-54
2023/10/25 01:23:56;;;;;;;5.97;3.33;;;10.20;99.90;;;;;;5015798;28;20065;-52
2023/10/25 01:26:23;;;;;;;6.97;3.22;;;10.20;99.90;;;;;;5014562;28;20057;-53
2023/10/25 01:28:49;;;;;;;7.00;3.67;;;10.20;99.90;;;;;;5015638;28;20046;-51
2023/10/25 01:31:16;;;;;;;11.23;2.97;;;10.30;99.90;;;;;;5015735;28;20073;-50
2023/10/25 01:33:45;;;;;;;6.90;3.00;;;10.20;99.90;;;;;;5014285;28;20063;-52
2023/10/25 01:36:12;;;;;;;6.20;3.42;;;10.20;99.90;;;;;;5013911;28;20489;-53
2023/10/25 01:38:39;;;;;;;7.75;3.35;;;10.20;99.90;;;;;;5015397;28;20482;-50
2023/10/25 01:41:05;;;;;;;8.55;3.38;;;10.20;99.90;;;;;;5015733;28;20482;-54
2023/10/25 01:43:32;;;;;;;8.95;3.50;;;10.20;99.90;;;;;;5015566;28;20046;-55
2023/10/25 01:45:59;;;;;;;7.90;3.60;;;10.30;99.90;;;;;;5015419;28;20050;-55
2023/10/25 01:48:26;;;;;;;8.25;3.20;;;10.20;99.90;;;;;;5015365;28;20048;-54
2023/10/25 01:50:53;;;;;;;8.05;3.22;;;10.30;99.90;;;;;;5015656;28;20130;-54
2023/10/25 01:53:20;;;;;;;6.40;3.30;;;10.20;99.90;;;;;;5015389;28;20046;-53
2023/10/25 01:55:48;;;;;;;7.22;3.25;;;10.30;99.90;;;;;;5014774;28;20046;-56
2023/10/25 01:58:15;;;;;;;9.30;3.50;;;10.20;99.90;;;;;;5014155;28;20114;-55
2023/10/25 02:00:42;;;;;;;9.07;3.03;;;10.20;99.90;;;;;;5013652;28;20129;-54
2023/10/25 02:03:09;;;;;;;12.82;3.38;;;10.20;99.90;;;;;;5013905;28;20037;-51
2023/10/25 02:05:36;;;;;;;9.73;3.20;;;10.30;99.90;;;;;;5015120;28;20038;-63
2023/10/25 02:08:03;;;;;;;8.63;3.30;;;10.30;99.90;;;;;;5015089;28;20080;-63
2023/10/25 02:10:30;;;;;;;8.02;3.00;;;10.30;99.90;;;;;;5013602;28;20054;-63
2023/10/25 02:12:56;;;;;;;6.78;3.13;;;10.30;99.90;;;;;;5014823;28;20046;-63
2023/10/25 02:15:23;;;;;;;7.30;2.90;;;10.30;99.90;;;;;;5014799;28;20069;-62
2023/10/25 02:17:50;;;;;;;5.95;2.75;;;10.30;99.90;;;;;;4996031;28;20038;-63
2023/10/25 02:20:17;;;;;;;7.57;2.88;;;10.30;99.90;;;;;;4977817;28;20046;-63
2023/10/25 02:22:44;;;;;;;5.93;3.10;;;10.40;99.90;;;;;;4977929;28;20041;-61
2023/10/25 02:25:11;;;;;;;9.90;2.90;;;10.40;99.90;;;;;;4977524;28;20046;-61
2023/10/25 02:27:38;;;;;;;8.75;3.17;;;10.40;99.90;;;;;;4994895;28;20406;-60
2023/10/25 02:30:05;;;;;;;6.00;3.15;;;10.40;99.90;;;;;;4977490;28;20379;-61
2023/10/25 02:32:32;;;;;;;11.93;3.15;;;10.40;99.90;;;;;;4977903;28;20415;-61
2023/10/25 02:34:58;;;;;;;10.10;3.05;;;10.40;99.90;;;;;;4977868;28;20045;-61
2023/10/25 02:37:25;;;;;;;7.68;2.65;;;10.40;99.90;;;;;;4994872;28;20093;-61
2023/10/25 02:39:52;;;;;;;9.23;3.05;;;10.40;99.90;;;;;;4977125;28;20038;-61
2023/10/25 02:42:19;;;;;;;6.95;2.75;;;10.40;99.90;;;;;;4994842;28;20046;-60
2023/10/25 02:44:46;;;;;;;5.55;2.65;;;10.50;99.90;;;;;;4994793;28;20077;-61
2023/10/25 02:47:13;;;;;;;9.25;2.78;;;10.50;99.90;;;;;;4977092;28;20482;-61
2023/10/25 02:49:40;;;;;;;5.60;2.40;;;10.50;99.90;;;;;;4994745;28;20506;-61
2023/10/25 02:52:07;;;;;;;10.65;2.60;;;10.50;99.90;;;;;;4994567;28;20050;-60
2023/10/25 02:54:34;;;;;;;6.90;2.70;;;10.50;99.90;;;;;;4977210;28;20566;-61
2023/10/25 02:57:00;;;;;;;5.93;2.60;;;10.50;99.90;;;;;;4994303;28;20041;-60
2023/10/25 02:59:27;;;;;;;8.10;2.50;;;10.50;99.90;;;;;;4994660;28;20053;-61
2023/10/25 03:01:54;;;;;;;5.18;2.10;;;10.50;99.90;;;;;;4994297;28;20061;-63
2023/10/25 03:04:21;;;;;;;8.18;2.20;;;10.40;99.90;;;;;;4994461;28;20034;-61
2023/10/25 03:06:48;;;;;;;5.28;1.67;;;10.40;99.90;;;;;;4977102;28;20129;-60
2023/10/25 03:09:15;;;;;;;5.30;1.80;;;10.40;99.90;;;;;;4994290;28;20052;-62
2023/10/25 03:11:42;;;;;;;4.07;1.75;;;10.40;99.90;;;;;;4993553;28;20085;-62
2023/10/25 03:14:09;;;;;;;3.88;1.40;;;10.40;99.90;;;;;;4994402;28;20490;-60
2023/10/25 03:16:36;;;;;;;4.90;1.70;;;10.40;99.90;;;;;;4976415;28;20045;-61
2023/10/25 03:19:03;;;;;;;3.80;1.42;;;10.50;99.90;;;;;;4976586;28;20054;-62
2023/10/25 03:21:30;;;;;;;6.78;1.58;;;10.50;99.90;;;;;;4994133;28;20038;-60
2023/10/25 03:23:59;;;;;;;6.40;1.80;;;10.50;99.90;;;;;;4976545;28;20042;-61
2023/10/25 03:26:25;;;;;;;5.18;1.50;;;10.50;99.90;;;;;;4976517;28;20073;-61
2023/10/25 03:28:52;;;;;;;4.78;1.70;;;10.50;99.90;;;;;;4976318;28;20475;-61
2023/10/25 03:31:19;;;;;;;2.35;1.27;;;10.50;99.90;;;;;;4976474;28;20038;-61
2023/10/25 03:33:47;;;;;;;5.63;1.60;;;10.50;99.90;;;;;;4994358;28;20038;-61
2023/10/25 03:36:14;;;;;;;4.25;1.27;;;10.50;99.90;;;;;;4993628;28;20058;-61
2023/10/25 03:38:40;;;;;;;4.13;1.60;;;10.50;99.90;;;;;;4994094;28;20122;-61
2023/10/25 03:41:07;;;;;;;4.47;1.33;;;10.50;99.90;;;;;;4993906;28;20068;-61
2023/10/25 03:43:34;;;;;;;4.85;1.30;;;10.50;99.90;;;;;;4994108;28;20104;-61
2023/10/25 03:46:02;;;;;;;2.95;1.65;;;10.50;99.90;;;;;;4993832;28;20077;-61
2023/10/25 03:48:29;;;;;;;5.28;1.60;;;10.50;99.90;;;;;;4976339;28;20046;-61
2023/10/25 03:50:56;;;;;;;5.57;1.77;;;10.50;99.90;;;;;;4993939;28;20046;-61
2023/10/25 03:53:24;;;;;;;7.93;1.80;;;10.50;99.90;;;;;;4976459;28;20114;-61
2023/10/25 03:55:51;;;;;;;7.75;2.03;;;10.50;99.90;;;;;;4975959;28;20133;-61
2023/10/25 03:58:17;;;;;;;4.85;1.60;;;10.50;99.90;;;;;;4976069;28;20490;-61
2023/10/25 04:00:44;;;;;;;6.28;1.70;;;10.50;99.90;;;;;;4994102;28;20045;-61
2023/10/25 04:03:11;;;;;;;5.07;1.63;;;10.50;99.90;;;;;;4993954;28;20483;-61
2023/10/25 04:05:38;;;;;;;5.03;1.60;;;10.50;99.90;;;;;;4993851;28;20045;-61
2023/10/25 04:08:05;;;;;;;6.47;1.88;;;10.50;99.90;;;;;;4993708;28;20046;-61
2023/10/25 04:10:32;;;;;;;5.38;1.60;;;10.50;99.90;;;;;;4993647;28;20035;-61
2023/10/25 04:12:59;;;;;;;2.97;1.45;;;10.50;99.90;;;;;;4993653;28;20061;-61
2023/10/25 04:15:28;;;;;;;4.90;1.80;;;10.50;99.90;;;;;;4993468;28;20451;-61
2023/10/25 04:17:55;;;;;;;4.07;1.52;;;10.50;99.90;;;;;;4993251;28;20070;-61
2023/10/25 04:20:22;;;;;;;7.18;1.70;;;10.50;99.90;;;;;;4993884;28;20039;-61
2023/10/25 04:22:49;;;;;;;4.60;1.90;;;10.50;99.90;;;;;;4994095;28;20085;-61
2023/10/25 04:25:16;;;;;;;4.63;1.55;;;10.50;99.90;;;;;;4997494;28;20430;-61
2023/10/25 04:27:42;;;;;;;3.17;1.55;;;10.40;99.90;;;;;;4997248;28;20050;-61
2023/10/25 04:30:10;;;;;;;3.90;1.95;;;10.40;99.90;;;;;;4979911;28;20042;-61
2023/10/25 04:32:37;;;;;;;4.18;1.92;;;10.40;99.90;;;;;;4997174;28;20046;-61
2023/10/25 04:35:03;;;;;;;6.75;2.28;;;10.40;99.90;;;;;;4997225;28;20052;-53
2023/10/25 04:37:30;;;;;;;5.00;2.30;;;10.40;99.90;;;;;;4996988;28;20050;-52
2023/10/25 04:39:57;;;;;;;5.30;2.40;;;10.40;99.90;;;;;;4996983;28;20066;-54
2023/10/25 04:42:24;;;;;;;5.65;2.97;;;10.40;99.90;;;;;;4997002;28;20038;-52
2023/10/25 04:44:51;;;;;;;7.30;3.47;;;10.40;99.90;;;;;;4997213;28;20108;-52
2023/10/25 04:47:18;;;;;;;6.38;3.60;;;10.40;99.90;;;;;;4996940;28;20054;-53
2023/10/25 04:49:44;;;;;;;7.85;4.13;;;10.40;99.90;;;;;;4997121;28;20038;-53
2023/10/25 04:52:11;;;;;;;8.10;4.32;;;10.40;99.90;;;;;;4996677;28;20043;-52
2023/10/25 04:54:38;;;;;;;9.18;5.05;;;10.40;99.90;;;;;;4996576;28;20105;-54
2023/10/25 04:57:05;;;;;;;7.32;5.80;;;10.50;99.90;;;;;;4996501;28;20049;-52
2023/10/25 04:59:32;;;;;;;7.78;5.80;;;10.50;99.90;;;;;;4996576;28;20046;-54
2023/10/25 05:01:58;;;;;;;11.65;7.07;;;10.50;99.90;;;;;;4997067;28;20134;-56
2023/10/25 05:04:25;;;;;;;13.15;7.68;;;10.50;99.90;;;;;;4996945;28;20092;-51
2023/10/25 05:06:53;;;;;;;11.70;8.40;;;10.50;99.90;;;;;;4997045;28;20456;-53
2023/10/25 05:09:19;;;;;;;13.20;8.63;;;10.50;99.90;;;;;;4979413;28;20379;-54
2023/10/25 05:11:46;;;;;;;10.43;9.30;;;10.50;99.90;;;;;;4996572;28;20046;-52
2023/10/25 05:14:13;;;;;;;14.45;10.07;;;10.50;99.90;;;;;;4996693;28;20124;-56
2023/10/25 05:16:40;;;;;;;13.88;11.10;;;10.50;99.90;;;;;;4996783;28;20042;-54
2023/10/25 05:19:06;;;;;;;17.15;11.75;;;10.50;99.90;;;;;;4996382;28;20049;-56
2023/10/25 05:21:35;;;;;;;18.02;13.13;;;10.50;99.90;;;;;;4996501;28;20076;-53
2023/10/25 05:24:02;;;;;;;14.85;12.85;;;10.50;99.90;;;;;;4996982;28;20042;-55
2023/10/25 05:26:29;;;;;;;17.38;13.90;;;10.50;99.90;;;;;;4996591;28;20536;-56
2023/10/25 05:28:56;;;;;;;17.70;14.57;;;10.50;99.90;;;;;;4996545;28;20050;-55
2023/10/25 05:31:22;;;;;;;20.80;15.35;;;10.50;99.90;;;;;;4996235;28;20542;-54
2023/10/25 05:33:49;;;;;;;20.42;16.73;;;10.50;99.90;;;;;;4995839;28;20043;-55
2023/10/25 05:36:16;;;;;;;22.85;16.45;;;10.50;99.90;;;;;;4996016;28;20423;-63
2023/10/25 05:38:43;;;;;;;20.63;16.25;;;10.50;99.90;;;;;;4995873;28;20034;-60
2023/10/25 05:41:10;;;;;;;20.55;16.45;;;10.50;99.90;;;;;;4996462;28;20038;-63
2023/10/25 05:43:38;;;;;;;20.08;16.00;;;10.50;99.90;;;;;;4996223;28;20038;-63
2023/10/25 05:46:05;;;;;;;24.13;16.25;;;10.50;99.90;;;;;;4995892;28;20038;-63
2023/10/25 05:48:31;;;;;;;20.33;15.73;;;10.50;99.90;;;;;;4996220;28;20042;-63
2023/10/25 05:50:58;;;;;;;16.55;14.82;;;10.50;99.90;;;;;;4995865;28;20125;-62
2023/10/25 05:53:25;;;;;;;17.73;15.43;;;10.50;99.90;;;;;;4995966;28;20374;-62
2023/10/25 05:55:52;;;;;;;19.40;13.43;;;10.50;99.90;;;;;;4995869;28;20042;-62
2023/10/25 05:58:19;;;;;;;17.67;13.82;;;10.50;99.90;;;;;;4995658;28;20049;-62
2023/10/25 06:00:49;;;;;;;18.58;13.13;;;10.50;99.90;;;;;;4995803;28;20065;-62
2023/10/25 06:03:16;;;;;;;14.88;12.80;;;10.50;99.90;;;;;;4995234;28;20046;-62
2023/10/25 06:05:43;;;;;;;17.92;12.45;;;10.60;99.90;;;;;;4995613;28;20038;-62
2023/10/25 06:08:10;;;;;;;13.90;12.07;;;10.60;99.90;;;;;;4995776;28;20125;-62
2023/10/25 06:10:38;;;;;;;15.13;11.82;;;10.70;99.90;;;;;;4994414;28;20047;-62
2023/10/25 06:13:04;;;;;;;14.52;10.75;;;10.70;99.90;;;;;;4995634;28;20411;-62
2023/10/25 06:15:31;;;;;;;15.13;11.30;;;10.70;99.90;;;;;;4995498;28;20048;-62
2023/10/25 06:17:58;;;;;;;12.77;10.65;;;10.80;99.90;;;;;;4995335;28;20045;-62
2023/10/25 06:20:25;;;;;;;18.52;10.55;;;10.70;99.90;;;;;;4995469;28;20034;-62
2023/10/25 06:22:52;;;;;;;12.65;11.18;;;10.70;99.90;;;;;;4995656;28;20038;-62
2023/10/25 06:25:18;;;;;;;16.92;10.23;;;10.70;99.90;;;;;;4995386;28;20047;-61
2023/10/25 06:27:45;;;;;;;15.60;10.30;;;10.70;99.90;;;;;;4995366;28;20096;-62
2023/10/25 06:30:12;;;;;;;15.90;10.15;;;10.70;99.90;;;;;;4995263;28;20056;-61
2023/10/25 06:32:39;;;;;;;15.25;10.52;;;10.60;99.90;;;;;;4995349;28;20042;-60
2023/10/25 06:35:06;;;;;;;15.38;10.82;;;10.70;99.90;;;;;;4994863;28;20042;-61
2023/10/25 06:37:33;;;;;;;14.55;9.88;;;10.70;99.90;;;;;;4994815;28;20089;-61
2023/10/25 06:39:59;;;;;;;16.73;9.40;;;10.70;99.90;;;;;;4995273;28;20442;-61
2023/10/25 06:42:27;;;;;;;15.18;9.45;;;10.70;99.90;;;;;;4993680;28;20050;-62
2023/10/25 06:44:54;;;;;;;13.80;9.43;;;10.80;99.90;;;;;;4995268;28;20411;-61
2023/10/25 06:47:21;;;;;;;19.33;10.38;;;10.70;99.90;;;;;;4994556;28;20046;-61
2023/10/25 06:49:48;;;;;;;18.30;10.50;;;10.70;99.90;;;;;;4995080;28;20054;-61
2023/10/25 06:52:14;;;;;;;14.52;9.90;;;10.80;99.90;;;;;;4994874;28;20529;-61
2023/10/25 06:54:41;;;;;;;15.18;10.13;;;10.80;99.90;;;;;;4995165;28;20053;-61
2023/10/25 06:57:08;;;;;;;16.00;9.95;;;10.80;99.90;;;;;;4994663;28;20070;-61
2023/10/25 06:59:35;;;;;;;18.75;10.30;;;10.80;99.90;;;;;;4994578;28;20069;-61
2023/10/25 07:02:03;;;;;;;16.52;10.70;;;10.70;99.90;;;;;;5002868;28;20049;-61
2023/10/25 07:04:32;;;;;;;19.08;11.10;;;10.80;99.90;;;;;;5014414;28;20088;-61
2023/10/25 07:06:59;;;;;;;18.95;11.55;;;10.80;99.90;;;;;;5014158;28;20046;-61
2023/10/25 07:09:26;;;;;;;16.70;11.75;;;10.80;99.90;;;;;;5013930;28;20597;-61
2023/10/25 07:11:53;;;;;;;16.85;11.35;;;10.80;99.90;;;;;;5012564;28;20085;-61
2023/10/25 07:14:20;;;;;;;15.85;11.30;;;10.90;99.90;;;;;;5013973;28;20046;-61
2023/10/25 07:16:46;;;;;;;14.45;10.85;;;10.90;99.90;;;;;;5013864;28;20045;-61
2023/10/25 07:19:13;;;;;;;13.73;10.65;;;10.90;99.90;;;;;;5013921;28;20081;-61
2023/10/25 07:21:41;;;;;;;21.77;11.75;;;10.90;99.90;;;;;;5012431;28;20034;-61
2023/10/25 07:24:07;;;;;;;16.17;10.85;;;10.90;99.90;;;;;;5013517;28;20082;-61
2023/10/25 07:26:34;;;;;;;15.63;11.07;;;10.90;99.90;;;;;;5013728;28;20435;-61
2023/10/25 07:29:01;;;;;;;19.00;11.50;;;10.90;99.90;;;;;;5013504;28;20421;-61
2023/10/25 07:31:28;;;;;;;14.80;11.20;;;10.90;99.90;;;;;;5013141;28;20390;-60
2023/10/25 07:33:55;;;;;;;18.52;11.13;;;10.90;99.90;;;;;;5007974;28;20049;-50
2023/10/25 07:36:21;;;;;;;12.50;10.73;;;10.90;99.90;;;;;;4994761;28;20569;-52
2023/10/25 07:38:48;;;;;;;19.52;11.30;;;10.90;99.90;;;;;;5006666;28;20104;-54
2023/10/25 07:41:15;;;;;;;19.40;11.57;;;10.90;99.90;;;;;;5013192;28;20128;-52
2023/10/25 07:43:43;;;;;;;15.70;11.00;;;10.90;99.90;;;;;;5012819;28;20065;-54
2023/10/25 07:46:10;;;;;;;18.38;12.18;;;11.00;99.90;;;;;;5012581;28;20065;-51
2023/10/25 07:48:37;;;;;;;17.30;12.55;;;11.00;99.90;;;;;;5012656;28;20034;-54
2023/10/25 07:51:04;;;;;;;18.75;13.15;;;11.00;99.90;;;;;;5012970;28;20077;-50
2023/10/25 07:53:31;;;;;;;18.55;14.95;;;11.00;99.90;;;;;;5006597;28;20065;-53
2023/10/25 07:55:58;;;;;;;18.52;13.85;;;11.10;99.90;;;;;;5006582;28;20046;-52
2023/10/25 07:58:28;;;;;;;17.15;13.32;;;11.10;99.90;;;;;;5009637;28;20054;-54
2023/10/25 08:00:55;;;;;;;13.98;11.43;;;11.20;99.90;;;;;;5016797;28;20044;-53
2023/10/25 08:03:22;;;;;;;16.13;10.90;;;11.20;99.90;;;;;;5016615;28;20034;-53
2023/10/25 08:05:49;;;;;;;20.85;10.40;;;11.30;99.90;;;;;;5016967;28;20116;-54
2023/10/25 08:08:17;;;;;;;15.32;8.73;;;11.30;99.90;;;;;;5016611;28;20356;-51
2023/10/25 08:10:44;;;;;;;16.30;8.68;;;11.30;99.90;;;;;;5010605;28;20491;-52
2023/10/25 08:13:11;;;;;;;14.48;8.68;;;11.30;99.90;;;;;;5016421;28;20121;-51
2023/10/25 08:15:38;;;;;;;13.07;8.32;;;11.30;99.90;;;;;;5010213;28;20065;-54
2023/10/25 08:18:05;;;;;;;10.95;7.65;;;11.30;99.90;;;;;;5009924;28;20121;-52
2023/10/25 08:20:32;;;;;;;12.57;7.65;;;11.30;99.90;;;;;;5010172;28;20117;-52
2023/10/25 08:22:59;;;;;;;13.35;7.97;;;11.30;99.90;;;;;;5016521;28;20038;-55
2023/10/25 08:25:26;;;;;;;14.00;7.90;;;11.20;99.90;;;;;;5015739;28;20060;-55
2023/10/25 08:27:53;;;;;;;11.43;7.78;;;11.30;99.90;;;;;;5016143;28;20443;-53
2023/10/25 08:30:21;;;;;;;11.75;8.27;;;11.30;99.90;;;;;;5016188;28;20108;-52
2023/10/25 08:32:47;;;;;;;11.75;8.07;;;11.20;99.90;;;;;;5016288;28;20491;-53
2023/10/25 08:35:14;;;;;;;11.15;7.50;;;11.30;99.90;;;;;;5010426;28;20074;-53
2023/10/25 08:37:41;;;;;;;10.07;7.50;;;11.20;99.90;;;;;;5015629;28;20490;-55
2023/10/25 08:40:08;;;;;;;12.07;7.38;;;11.20;99.90;;;;;;5015950;28;20128;-54
2023/10/25 08:42:35;;;;;;;12.32;7.40;;;11.20;99.90;;;;;;5016143;28;20069;-56
2023/10/25 08:45:02;;;;;;;16.17;7.00;;;11.10;99.90;;;;;;5016199;28;20049;-53
2023/10/25 08:47:28;;;;;;;10.00;6.57;;;11.10;99.90;;;;;;5016011;28;20490;-55
2023/10/25 08:49:55;;;;;;;11.63;7.22;;;11.10;99.90;;;;;;5016042;28;20128;-56
2023/10/25 08:52:22;;;;;;;14.40;7.55;;;11.10;99.90;;;;;;5015724;28;20100;-51
2023/10/25 08:54:49;;;;;;;9.95;7.15;;;11.10;99.90;;;;;;5015823;28;20045;-51
2023/10/25 08:57:16;;;;;;;12.60;7.47;;;11.10;99.90;;;;;;5015629;28;20041;-51
2023/10/25 08:59:46;;;;;;;13.35;7.05;;;11.20;99.90;;;;;;5015737;28;20046;-62
2023/10/25 09:02:14;;;;;;;12.15;7.18;;;11.10;99.90;;;;;;5015757;28;20101;-62
2023/10/25 09:04:41;;;;;;;13.15;7.47;;;11.10;99.90;;;;;;5030935;28;20061;-62
2023/10/25 09:07:07;;;;;;;10.70;7.72;;;11.10;99.90;;;;;;5015573;28;20499;-62
2023/10/25 09:09:34;;;;;;;12.50;7.47;;;11.10;99.90;;;;;;5029610;28;20042;-61
2023/10/25 09:12:01;;;;;;;15.75;7.18;;;11.20;99.90;;;;;;5015614;28;20467;-62
2023/10/25 09:14:28;;;;;;;11.73;7.60;;;11.30;99.90;;;;;;5015180;28;20168;-63
2023/10/25 09:16:55;;;;;;;9.90;7.65;;;11.30;99.90;;;;;;5015230;28;20052;-63
2023/10/25 09:19:23;;;;;;;9.93;7.13;;;11.30;99.90;;;;;;4997589;28;20042;-63
2023/10/25 09:21:51;;;;;;;14.40;8.50;;;11.30;99.90;;;;;;5015546;28;20037;-63
2023/10/25 09:24:18;;;;;;;13.25;7.95;;;11.30;99.90;;;;;;5015097;28;20140;-63
2023/10/25 09:26:46;;;;;;;10.73;7.40;;;11.40;99.90;;;;;;5015301;28;20113;-63
2023/10/25 09:29:14;;;;;;;11.65;7.55;;;11.40;99.90;;;;;;5015250;28;20041;-62
2023/10/25 09:31:40;;;;;;;11.23;7.22;;;11.40;99.90;;;;;;5015298;28;20046;-62
2023/10/25 09:34:10;;;;;;;11.75;7.30;;;11.50;99.90;;;;;;5015340;28;20073;-62
2023/10/25 09:36:37;;;;;;;12.57;6.85;;;11.50;99.90;;;;;;5029940;28;20561;-63
2023/10/25 09:39:04;;;;;;;10.30;6.78;;;11.50;99.90;;;;;;5014856;28;20050;-62
2023/10/25 09:41:32;;;;;;;12.73;6.70;;;11.60;99.90;;;;;;5013779;28;20041;-63
2023/10/25 09:43:59;;;;;;;10.68;6.65;;;11.60;99.90;;;;;;5014749;28;20463;-62
2023/10/25 09:46:26;;;;;;;10.50;6.88;;;11.60;99.90;;;;;;5014512;28;20069;-62
2023/10/25 09:48:53;;;;;;;12.50;7.10;;;11.70;99.90;;;;;;5014776;28;20038;-63
2023/10/25 09:51:20;;;;;;;10.93;6.80;;;11.80;99.90;;;;;;5008575;28;20596;-63
2023/10/25 09:53:47;;;;;;;9.40;6.57;;;11.80;99.90;;;;;;5013697;28;20045;-63
2023/10/25 09:56:14;;;;;;;10.77;6.88;;;11.90;99.90;;;;;;5014630;28;20080;-62
2023/10/25 09:58:41;;;;;;;11.27;6.57;;;11.90;99.90;;;;;;5014515;28;20049;-62
2023/10/25 10:01:08;;;;;;;10.98;6.88;;;11.90;99.90;;;;;;5014520;28;20509;-62
2023/10/25 10:03:36;;;;;;;11.38;6.25;;;12.00;99.90;;;;;;5014668;28;20144;-62
2023/10/25 10:06:03;;;;;;;9.85;6.40;;;12.10;99.90;;;;;;5015035;28;20137;-62
2023/10/25 10:08:32;;;;;;;10.32;6.53;;;12.10;99.90;;;;;;5014551;28;20081;-62
2023/10/25 10:10:59;;;;;;;9.32;5.47;;;12.10;99.90;;;;;;5014520;28;20128;-63
2023/10/25 10:13:26;;;;;;;10.30;5.95;;;12.20;99.90;;;;;;5014215;28;20038;-63
2023/10/25 10:15:53;;;;;;;10.20;5.55;;;12.20;99.90;;;;;;5014295;28;20402;-62
2023/10/25 10:18:20;;;;;;;11.40;6.18;;;12.10;99.90;;;;;;5014229;28;20042;-62
2023/10/25 10:20:46;;;;;;;9.70;5.57;;;12.10;99.90;;;;;;5014313;28;20125;-62
2023/10/25 10:23:16;;;;;;;10.07;5.72;;;12.20;99.90;;;;;;5014185;28;20042;-62
2023/10/25 10:25:43;;;;;;;10.00;6.65;;;12.20;99.90;;;;;;5013210;28;20041;-62
2023/10/25 10:28:10;;;;;;;11.82;6.03;;;12.30;99.90;;;;;;5013797;28;20038;-62
2023/10/25 10:30:37;;;;;;;13.05;6.32;;;12.30;99.90;;;;;;5014289;28;20046;-62
2023/10/25 10:33:04;;;;;;;13.32;6.60;;;12.30;99.90;;;;;;5013995;28;20100;-63
2023/10/25 10:35:33;;;;;;;12.68;6.47;;;12.30;99.90;;;;;;4996202;28;20453;-62
2023/10/25 10:38:00;;;;;;;10.57;6.18;;;12.20;99.90;;;;;;5013743;28;20144;-63
2023/10/25 10:40:27;;;;;;;12.32;6.03;;;12.30;99.90;;;;;;5013687;28;20475;-63
2023/10/25 10:42:53;;;;;;;14.48;6.55;;;12.30;99.90;;;;;;5013692;28;20064;-63
2023/10/25 10:45:20;;;;;;;12.07;8.00;;;12.30;99.90;;;;;;5013765;28;20046;-62
2023/10/25 10:47:47;;;;;;;16.02;6.68;;;12.30;99.90;;;;;;5013672;28;20042;-62
2023/10/25 10:50:14;;;;;;;11.15;6.15;;;12.30;99.90;;;;;;5013975;28;20042;-63
2023/10/25 10:52:41;;;;;;;10.27;6.40;;;12.20;99.90;;;;;;4996040;28;20084;-63
2023/10/25 10:55:08;;;;;;;10.20;6.32;;;12.20;99.90;;;;;;5013678;28;20038;-63
2023/10/25 10:57:35;;;;;;;9.25;6.20;;;12.20;99.90;;;;;;5013454;28;20069;-63
2023/10/25 11:00:04;;;;;;;8.70;5.65;;;12.20;99.90;;;;;;5013817;28;20045;-63
2023/10/25 11:02:31;;;;;;;8.20;5.55;;;12.30;99.90;;;;;;5013693;28;20041;-62
2023/10/25 11:04:58;;;;;;;10.77;5.43;;;12.40;99.90;;;;;;5014176;28;20038;-63
2023/10/25 11:07:25;;;;;;;9.77;5.53;;;12.50;99.90;;;;;;5013945;28;20072;-63
2023/10/25 11:09:51;;;;;;;7.78;5.13;;;12.60;99.90;;;;;;5013969;28;20141;-62
2023/10/25 11:12:18;;;;;;;9.93;5.82;;;12.70;99.90;;;;;;5014311;28;20431;-62
2023/10/25 11:14:45;;;;;;;9.15;4.82;;;12.80;99.90;;;;;;5013709;28;20045;-62
2023/10/25 11:17:12;;;;;;;10.27;5.20;;;12.80;99.90;;;;;;5013490;28;20100;-63
2023/10/25 11:19:40;;;;;;;9.95;5.28;;;12.80;99.90;;;;;;5013732;28;20109;-63
2023/10/25 11:22:07;;;;;;;11.15;5.60;;;12.80;99.90;;;;;;5013923;28;20057;-63
2023/10/25 11:24:34;;;;;;;10.60;5.78;;;12.80;99.90;;;;;;5012980;28;20046;-63
2023/10/25 11:27:01;;;;;;;9.15;5.78;;;12.80;99.90;;;;;;5014143;28;20514;-62
2023/10/25 11:29:28;;;;;;;11.70;5.43;;;12.70;99.90;;;;;;5012799;28;20060;-63
2023/10/25 11:31:55;;;;;;;10.32;5.90;;;12.70;99.90;;;;;;5013133;28;20045;-63
2023/10/25 11:34:22;;;;;;;10.90;5.43;;;12.70;99.90;;;;;;5013330;28;20080;-63
2023/10/25 11:36:49;;;;;;;13.15;5.63;;;12.60;99.90;;;;;;5013022;28;20069;-63
2023/10/25 11:39:15;;;;;;;9.05;5.07;;;12.70;99.90;;;;;;5013343;28;20034;-63
2023/10/25 11:41:42;;;;;;;10.70;5.95;;;12.70;99.90;;;;;;5012976;28;20065;-63
2023/10/25 11:44:09;;;;;;;11.02;5.78;;;12.70;99.90;;;;;;5028863;28;20044;-63
2023/10/25 11:46:36;;;;;;;11.10;4.85;;;12.70;99.90;;;;;;5012803;28;20035;-62
2023/10/25 11:49:03;;;;;;;8.98;5.07;;;12.70;99.90;;;;;;5013019;28;21017;-63
2023/10/25 11:51:29;;;;;;;8.70;5.28;;;12.60;99.90;;;;;;5012716;28;20052;-62
2023/10/25 11:53:56;;;;;;;9.07;4.70;;;12.70;99.90;;;;;;5013170;28;20479;-63
2023/10/25 11:56:35;;;;;;;9.00;5.07;;;12.80;99.90;;;;;;5012509;28;20038;-63
2023/10/25 11:59:02;;;;;;;10.98;4.70;;;12.80;99.90;;;;;;5012943;28;20042;-63
2023/10/25 12:01:29;;;;;;;10.57;5.07;;;12.90;99.90;;;;;;5013202;28;20038;-63
2023/10/25 12:03:56;;;;;;;7.90;4.28;;;12.90;99.90;;;;;;5013112;28;20124;-62
2023/10/25 12:06:23;;;;;;;8.90;4.43;;;13.00;99.90;;;;;;5012145;28;20050;-63
2023/10/25 12:08:49;;;;;;;9.05;4.50;;;13.00;99.90;;;;;;5012541;28;20037;-62
2023/10/25 12:11:16;;;;;;;7.05;4.47;;;13.00;99.90;;;;;;5012232;28;20052;-55
2023/10/25 12:13:43;;;;;;;7.75;4.10;;;13.20;99.90;;;;;;5012183;28;20406;-56
2023/10/25 12:16:10;;;;;;;10.18;3.95;;;13.20;99.90;;;;;;5012528;28;20414;-56
2023/10/25 12:18:37;;;;;;;7.97;4.03;;;13.30;99.90;;;;;;5012334;28;20038;-55
2023/10/25 12:21:04;;;;;;;8.18;4.10;;;13.30;99.90;;;;;;5012220;28;20049;-56
2023/10/25 12:23:30;;;;;;;6.57;3.60;;;13.20;99.90;;;;;;5012031;28;20048;-56
2023/10/25 12:25:57;;;;;;;5.75;3.42;;;13.20;99.90;;;;;;5012716;28;20566;-55
2023/10/25 12:28:24;;;;;;;5.85;3.17;;;13.20;99.90;;;;;;5012590;28;20070;-56
2023/10/25 12:30:51;;;;;;;9.05;3.33;;;13.30;99.90;;;;;;5012448;28;20100;-53
2023/10/25 12:33:20;;;;;;;8.52;2.88;;;13.20;99.90;;;;;;5012423;28;20100;-55
2023/10/25 12:35:49;;;;;;;8.52;3.20;;;13.20;99.90;;;;;;5012297;28;20038;-53
2023/10/25 12:38:16;;;;;;;6.20;3.20;;;13.30;99.90;;;;;;5012256;28;20466;-55